Kensington, Minnesota
Current Conditions -  °F | °C
As of 8:53 PM on Monday 22 Dec 2014 (Local Time) from KAXN Reporting Station
Light Snow Light Snow  
Wind Chill: 24°   Ceiling: 400
Heat Index: 33°   Visibility: 2mi
Dew Point: 32°   Wind: 12mph
Humidity: 96%   Direction: 80°E
Pressure: 29.61"   Gusts: NA
Location:  45.78°N, 95.7°W
Report Text: KAXN 230253Z AUTO 08010KT 2SM -SN BR OVC004 01/00 A2961 RMK AO2 SLP042 P0001 60001 T00060000 51015
Loading
Personal Weather Stations






























Interactive Weather Map New forecast layout! Learn more

10-Day Weather Forecast

Advertisements
Track Severe Weather on mobile